Time;durP1;ratioP1;P1;durP2;ratioP2;P2;SDS_P1;SDS_P2;PMS_P1;PMS_P2;Temp;Humidity;BMP_temperature;BMP_pressure;BME280_temperature;BME280_humidity;BME280_pressure;Samples;Min_cycle;Max_cycle;Signal;HPM_P1;HPM_P2
2023/07/05 00:01:44;;;;;;;1.48;0.75;;;14.30;99.90;;;;;;5089439;28;20040;-73
2023/07/05 00:22:05;;;;;;;1.60;0.70;;;14.20;99.90;;;;;;5145619;23;20558;-72
2023/07/05 00:24:30;;;;;;;2.00;0.90;;;14.30;99.90;;;;;;4872439;29;20140;-72
2023/07/05 00:26:56;;;;;;;1.58;0.90;;;14.30;99.90;;;;;;4861935;29;20050;-73
2023/07/05 00:29:22;;;;;;;2.83;1.00;;;14.30;99.90;;;;;;4862168;29;20057;-73
2023/07/05 00:31:47;;;;;;;2.47;1.10;;;14.20;99.90;;;;;;4855373;29;20087;-73
2023/07/05 00:34:13;;;;;;;2.45;1.20;;;14.20;99.90;;;;;;4867863;29;20049;-73
2023/07/05 00:36:39;;;;;;;1.92;0.90;;;14.20;99.90;;;;;;4869334;29;20049;-73
2023/07/05 00:39:04;;;;;;;19.15;1.83;;;14.20;99.90;;;;;;4859678;29;20104;-72
2023/07/05 00:41:30;;;;;;;7.47;1.80;;;14.20;99.90;;;;;;4870479;29;20052;-73
2023/07/05 00:43:56;;;;;;;2.63;1.52;;;14.20;99.90;;;;;;4875626;29;20045;-73
2023/07/05 00:46:29;;;;;;;3.03;1.63;;;14.20;99.90;;;;;;4857058;29;20045;-73
2023/07/05 00:49:14;;;;;;;2.15;1.05;;;14.20;99.90;;;;;;4857564;29;20057;-73
2023/07/05 00:51:49;;;;;;;19.05;2.22;;;14.10;99.90;;;;;;4862207;29;20136;-72
2023/07/05 00:54:18;;;;;;;8.07;1.90;;;14.10;99.90;;;;;;4869977;29;20128;-72
2023/07/05 00:56:54;;;;;;;14.70;2.33;;;14.20;99.90;;;;;;4867804;29;20065;-72
2023/07/05 00:59:21;;;;;;;16.67;3.53;;;14.20;99.90;;;;;;4884953;29;20375;-72
2023/07/05 01:01:47;;;;;;;7.20;1.60;;;14.10;99.90;;;;;;4854154;29;20371;-72
2023/07/05 01:04:13;;;;;;;3.80;1.30;;;14.20;99.90;;;;;;4861529;29;20045;-74
2023/07/05 01:06:39;;;;;;;4.50;1.40;;;14.20;99.90;;;;;;4819780;29;20109;-74
2023/07/05 01:09:06;;;;;;;3.05;1.40;;;14.10;99.90;;;;;;4870948;29;20057;-73
2023/07/05 01:12:06;;;;;;;10.32;1.85;;;14.20;99.90;;;;;;4858639;29;20049;-73
2023/07/05 01:14:39;;;;;;;3.45;1.35;;;14.30;99.90;;;;;;4844483;29;20045;-73
2023/07/05 01:17:22;;;;;;;5.63;1.60;;;14.20;99.90;;;;;;4845470;29;20091;-73
2023/07/05 01:20:23;;;;;;;2.67;1.60;;;14.30;99.90;;;;;;4884885;29;20197;-73
2023/07/05 01:23:20;;;;;;;2.80;1.83;;;14.30;99.90;;;;;;4842692;29;20518;-73
2023/07/05 01:26:28;;;;;;;4.10;1.73;;;14.20;99.90;;;;;;4841229;29;20061;-73
2023/07/05 01:29:25;;;;;;;3.08;1.63;;;14.20;99.90;;;;;;4831878;29;20173;-73
2023/07/05 01:32:07;;;;;;;3.42;1.83;;;14.20;99.90;;;;;;4846569;29;20080;-73
2023/07/05 01:34:48;;;;;;;2.17;1.45;;;14.20;99.90;;;;;;4836810;29;20174;-74
2023/07/05 01:37:28;;;;;;;4.15;1.77;;;14.20;99.90;;;;;;4842144;29;20049;-73
2023/07/05 01:39:54;;;;;;;3.38;1.42;;;14.20;99.90;;;;;;4846096;29;20075;-74
2023/07/05 01:42:26;;;;;;;2.40;1.30;;;14.20;99.90;;;;;;4847607;29;20050;-74
2023/07/05 01:44:52;;;;;;;2.10;1.35;;;14.20;99.90;;;;;;4851415;29;20077;-73
2023/07/05 01:47:31;;;;;;;1.85;1.20;;;14.20;99.90;;;;;;4843759;29;20084;-74
2023/07/05 01:50:03;;;;;;;3.35;1.48;;;14.10;99.90;;;;;;4837578;29;20038;-73
2023/07/05 01:53:04;;;;;;;3.50;1.42;;;14.10;99.90;;;;;;4841851;29;20070;-74
2023/07/05 01:55:40;;;;;;;3.08;1.70;;;14.10;99.90;;;;;;4852588;29;20579;-74
2023/07/05 01:58:13;;;;;;;2.22;1.40;;;14.10;99.90;;;;;;4844289;29;20535;-75
2023/07/05 02:00:41;;;;;;;2.83;1.52;;;14.20;99.90;;;;;;4852856;29;20399;-74
2023/07/05 02:03:10;;;;;;;4.28;1.70;;;14.20;99.90;;;;;;4850686;29;20041;-74
2023/07/05 02:05:37;;;;;;;2.72;1.80;;;14.00;99.90;;;;;;4839277;29;20081;-74
2023/07/05 02:08:04;;;;;;;3.53;1.60;;;14.20;99.90;;;;;;4811114;29;20152;-74
2023/07/05 02:10:30;;;;;;;2.30;1.55;;;14.10;99.90;;;;;;4838347;29;20129;-74
2023/07/05 02:12:57;;;;;;;2.45;1.60;;;14.00;99.90;;;;;;4845799;29;20124;-74
2023/07/05 02:15:23;;;;;;;4.35;1.75;;;13.90;99.90;;;;;;4854039;29;20040;-74
2023/07/05 02:17:49;;;;;;;4.00;1.83;;;13.90;99.90;;;;;;4829307;29;20071;-73
2023/07/05 02:20:15;;;;;;;4.45;1.83;;;13.90;99.90;;;;;;4835007;29;20054;-74
2023/07/05 02:22:41;;;;;;;2.90;1.70;;;14.10;99.90;;;;;;4855205;29;20136;-74
2023/07/05 02:25:07;;;;;;;2.13;1.48;;;14.20;99.90;;;;;;4853870;29;20058;-73
2023/07/05 02:27:32;;;;;;;2.53;1.90;;;14.00;99.90;;;;;;4853860;29;20055;-73
2023/07/05 02:29:58;;;;;;;4.22;1.98;;;14.20;99.90;;;;;;4856919;29;20129;-73
2023/07/05 02:32:25;;;;;;;5.88;2.72;;;14.20;99.90;;;;;;4854388;29;20080;-73
2023/07/05 02:34:52;;;;;;;4.93;2.75;;;13.90;99.90;;;;;;4856745;29;20042;-73
2023/07/05 02:37:18;;;;;;;5.57;3.30;;;13.90;99.90;;;;;;4848421;29;20048;-73
2023/07/05 02:39:44;;;;;;;4.35;2.90;;;14.10;99.90;;;;;;4856753;29;20054;-73
2023/07/05 02:42:10;;;;;;;5.15;2.80;;;14.20;99.90;;;;;;4851589;29;20069;-74
2023/07/05 02:44:36;;;;;;;;;;;14.20;99.90;;;;;;4860891;29;20038;-74
2023/07/05 02:47:03;;;;;;;3.67;2.70;;;14.00;99.90;;;;;;4857092;29;19976;-74
2023/07/05 02:49:28;;;;;;;8.50;2.58;;;13.90;99.90;;;;;;4860747;29;20103;-73
2023/07/05 02:51:54;;;;;;;7.03;2.92;;;14.20;99.90;;;;;;4870426;29;20499;-74
2023/07/05 02:54:20;;;;;;;6.38;3.08;;;14.20;99.90;;;;;;4875639;29;20053;-75
2023/07/05 02:56:46;;;;;;;8.95;3.88;;;14.20;99.90;;;;;;4860102;29;20093;-76
2023/07/05 02:59:11;;;;;;;6.35;3.60;;;14.30;99.90;;;;;;4847395;29;20046;-74
2023/07/05 03:01:37;;;;;;;5.40;3.40;;;14.40;99.90;;;;;;4849929;29;20195;-73
2023/07/05 03:04:03;;;;;;;7.78;4.55;;;13.80;99.90;;;;;;4848418;29;20041;-74
2023/07/05 03:06:28;;;;;;;7.45;4.68;;;13.70;99.90;;;;;;4848816;29;20040;-75
2023/07/05 03:08:54;;;;;;;5.97;3.60;;;13.80;99.90;;;;;;4846773;29;20053;-75
2023/07/05 03:11:20;;;;;;;7.32;4.38;;;13.70;99.90;;;;;;4853161;29;20101;-74
2023/07/05 03:13:45;;;;;;;5.70;3.40;;;13.70;99.90;;;;;;4846800;29;20046;-75
2023/07/05 03:16:11;;;;;;;7.07;3.55;;;13.90;99.90;;;;;;4859409;29;20055;-75
2023/07/05 03:18:37;;;;;;;7.13;5.13;;;13.80;99.90;;;;;;4842088;29;20544;-75
2023/07/05 03:21:03;;;;;;;5.88;4.57;;;14.00;99.90;;;;;;4855407;29;20077;-75
2023/07/05 03:23:28;;;;;;;7.38;5.00;;;14.40;99.90;;;;;;4859347;29;20049;-74
2023/07/05 03:26:02;;;;;;;6.82;4.38;;;13.70;99.90;;;;;;4867342;29;20053;-75
2023/07/05 03:28:30;;;;;;;5.15;3.67;;;13.60;99.90;;;;;;4831675;29;20097;-75
2023/07/05 03:31:08;;;;;;;6.80;4.90;;;14.40;99.90;;;;;;4876076;29;20056;-76
2023/07/05 03:33:34;;;;;;;5.10;4.22;;;14.50;99.90;;;;;;4856138;29;20054;-75
2023/07/05 03:36:06;;;;;;;4.72;3.80;;;13.70;99.90;;;;;;4865169;29;20109;-74
2023/07/05 03:38:33;;;;;;;4.80;3.75;;;14.40;99.90;;;;;;4868002;29;20050;-75
2023/07/05 03:41:06;;;;;;;7.78;4.95;;;13.60;99.90;;;;;;4853849;29;20044;-75
2023/07/05 03:43:36;;;;;;;6.57;4.50;;;14.10;99.90;;;;;;4837469;29;20042;-75
2023/07/05 03:46:06;;;;;;;5.03;3.63;;;14.10;99.90;;;;;;4859824;29;20041;-75
2023/07/05 03:48:38;;;;;;;5.38;4.25;;;13.80;99.90;;;;;;4861545;29;20456;-75
2023/07/05 03:51:04;;;;;;;5.22;4.47;;;14.70;99.90;;;;;;4859591;29;20056;-74
2023/07/05 03:53:33;;;;;;;6.70;4.93;;;14.60;99.90;;;;;;4848944;29;20045;-73
2023/07/05 03:56:04;;;;;;;4.80;3.35;;;14.60;99.90;;;;;;4858865;29;20065;-74
2023/07/05 03:58:30;;;;;;;4.93;3.97;;;14.80;99.90;;;;;;4845839;29;20056;-74
2023/07/05 04:01:22;;;;;;;6.93;4.40;;;14.40;99.90;;;;;;4859178;29;20045;-75
2023/07/05 04:03:50;;;;;;;5.43;4.47;;;14.00;99.90;;;;;;4839806;29;20077;-75
2023/07/05 04:06:17;;;;;;;5.53;4.18;;;13.70;99.90;;;;;;4840718;29;20045;-75
2023/07/05 04:08:43;;;;;;;4.72;3.90;;;15.10;99.90;;;;;;4814340;29;20057;-75
2023/07/05 04:11:09;;;;;;;5.95;4.50;;;15.00;99.90;;;;;;4843617;29;20399;-75
2023/07/05 04:13:35;;;;;;;;;;;13.70;99.90;;;;;;4845395;29;20093;-77
2023/07/05 04:16:03;;;;;;;5.93;4.30;;;14.80;99.90;;;;;;4844243;29;19920;-74
2023/07/05 04:18:31;;;;;;;5.65;3.97;;;14.50;99.90;;;;;;4841388;29;20160;-75
2023/07/05 04:20:57;;;;;;;4.32;3.30;;;13.90;99.90;;;;;;4849711;29;20064;-74
2023/07/05 04:23:22;;;;;;;;;;;15.20;99.90;;;;;;4852208;29;20049;-75
2023/07/05 04:25:48;;;;;;;3.55;2.72;;;15.30;99.90;;;;;;4845968;29;19927;-75
2023/07/05 04:28:14;;;;;;;4.78;3.00;;;14.20;99.90;;;;;;4857086;29;20098;-74
2023/07/05 04:30:40;;;;;;;4.25;3.00;;;15.40;99.90;;;;;;4857071;29;20578;-74
2023/07/05 04:33:05;;;;;;;3.92;3.40;;;14.00;99.90;;;;;;4839483;29;20049;-74
2023/07/05 04:35:32;;;;;;;4.82;3.53;;;13.80;99.90;;;;;;4865551;29;20077;-74
2023/07/05 04:37:57;;;;;;;6.22;4.53;;;15.70;99.90;;;;;;4852410;29;20760;-74
2023/07/05 04:40:23;;;;;;;5.93;4.07;;;15.90;99.90;;;;;;4851274;29;20050;-74
2023/07/05 04:42:49;;;;;;;4.78;3.58;;;14.20;99.90;;;;;;4845617;29;20179;-74
2023/07/05 04:45:16;;;;;;;4.47;3.58;;;14.80;99.90;;;;;;4835777;29;20483;-74
2023/07/05 04:47:42;;;;;;;6.10;3.90;;;14.20;99.90;;;;;;4834275;29;20110;-74
2023/07/05 04:50:08;;;;;;;;;;;14.80;99.90;;;;;;4844372;29;20089;-74
2023/07/05 04:52:33;;;;;;;4.93;4.15;;;14.10;99.90;;;;;;4847912;29;19971;-74
2023/07/05 04:54:59;;;;;;;6.30;3.90;;;14.10;99.90;;;;;;4847971;29;20563;-74
2023/07/05 04:57:27;;;;;;;5.55;4.15;;;14.60;99.90;;;;;;4837603;29;20108;-75
2023/07/05 04:59:53;;;;;;;5.53;3.72;;;14.90;99.90;;;;;;4844878;29;20064;-74
2023/07/05 05:02:19;;;;;;;7.13;4.07;;;14.40;99.90;;;;;;4838878;29;20049;-74
2023/07/05 05:04:45;;;;;;;5.40;3.47;;;15.90;99.90;;;;;;4854301;29;20090;-74
2023/07/05 05:07:13;;;;;;;5.68;3.75;;;14.10;99.90;;;;;;4830960;29;20046;-74
2023/07/05 05:09:40;;;;;;;5.00;3.80;;;15.80;99.90;;;;;;4809802;29;20077;-74
2023/07/05 05:12:07;;;;;;;5.45;3.30;;;14.30;99.90;;;;;;4855005;29;20113;-73
2023/07/05 05:14:33;;;;;;;5.05;3.63;;;15.40;99.90;;;;;;4865646;29;20109;-74
2023/07/05 05:16:59;;;;;;;4.10;3.05;;;14.00;99.90;;;;;;4861473;29;20042;-72
2023/07/05 05:19:25;;;;;;;4.28;3.13;;;14.60;99.90;;;;;;4843387;29;20057;-73
2023/07/05 05:21:50;;;;;;;5.78;3.30;;;14.00;99.90;;;;;;4841419;29;20420;-73
2023/07/05 05:24:16;;;;;;;4.32;2.83;;;14.10;99.90;;;;;;4849983;29;20048;-73
2023/07/05 05:26:42;;;;;;;3.83;2.60;;;14.60;99.90;;;;;;4854247;29;20490;-73
2023/07/05 05:29:07;;;;;;;5.25;3.05;;;14.30;99.90;;;;;;4847411;29;20140;-72
2023/07/05 05:31:33;;;;;;;5.65;2.75;;;14.60;99.90;;;;;;4846236;29;20495;-72
2023/07/05 05:33:59;;;;;;;4.43;2.95;;;14.40;99.90;;;;;;4842882;29;20045;-72
2023/07/05 05:36:24;;;;;;;5.18;2.80;;;14.10;99.90;;;;;;4868989;29;20514;-72
2023/07/05 05:38:50;;;;;;;4.57;2.88;;;14.00;99.90;;;;;;4844226;29;20133;-74
2023/07/05 05:41:16;;;;;;;3.75;2.95;;;14.00;99.90;;;;;;4866205;29;20581;-72
2023/07/05 05:43:43;;;;;;;4.18;3.00;;;14.20;99.90;;;;;;4853320;29;20559;-72
2023/07/05 05:46:09;;;;;;;5.93;2.70;;;14.10;99.90;;;;;;4839519;29;20050;-72
2023/07/05 05:48:35;;;;;;;3.90;3.10;;;14.50;99.90;;;;;;4819555;29;20526;-73
2023/07/05 05:51:00;;;;;;;3.90;2.88;;;14.00;99.90;;;;;;4858541;29;20077;-72
2023/07/05 05:53:26;;;;;;;4.10;3.10;;;14.30;99.90;;;;;;4836666;29;20141;-72
2023/07/05 05:55:54;;;;;;;2.85;2.55;;;14.50;99.90;;;;;;4849334;29;20041;-71
2023/07/05 05:58:20;;;;;;;4.82;3.10;;;14.50;99.90;;;;;;4846509;29;20065;-72
2023/07/05 06:00:46;;;;;;;4.38;3.20;;;14.60;99.90;;;;;;4859600;29;20045;-71
2023/07/05 06:03:12;;;;;;;6.57;2.88;;;14.20;99.90;;;;;;4860490;29;20068;-72
2023/07/05 06:05:38;;;;;;;4.47;2.80;;;14.70;99.90;;;;;;4875273;29;20519;-72
2023/07/05 06:08:04;;;;;;;5.47;2.70;;;14.70;99.90;;;;;;4849248;29;20050;-72
2023/07/05 06:10:30;;;;;;;3.45;3.08;;;14.60;99.90;;;;;;4858594;29;20050;-72
2023/07/05 06:12:56;;;;;;;3.78;2.88;;;14.60;99.90;;;;;;4838299;29;20058;-71
2023/07/05 06:15:22;;;;;;;3.47;3.05;;;14.40;99.90;;;;;;4868943;29;20052;-71
2023/07/05 06:17:47;;;;;;;4.07;2.80;;;14.70;99.90;;;;;;4857096;29;20060;-73
2023/07/05 06:20:16;;;;;;;3.63;2.83;;;14.70;99.90;;;;;;4842453;29;20190;-73
2023/07/05 06:22:42;;;;;;;3.90;2.90;;;14.50;99.90;;;;;;4835397;29;20045;-73
2023/07/05 06:25:11;;;;;;;5.13;3.13;;;14.50;99.90;;;;;;4845611;29;20061;-73
2023/07/05 06:27:38;;;;;;;3.35;2.75;;;14.40;99.90;;;;;;4846038;29;20277;-72
2023/07/05 06:30:04;;;;;;;;;;;14.50;99.90;;;;;;4839536;29;20382;-72
2023/07/05 06:32:29;;;;;;;3.28;2.58;;;14.50;99.90;;;;;;4860561;29;19930;-72
2023/07/05 06:34:55;;;;;;;3.22;2.53;;;14.60;99.90;;;;;;4855453;29;20053;-73
2023/07/05 06:37:21;;;;;;;4.68;3.17;;;14.70;99.90;;;;;;4850448;29;20125;-72
2023/07/05 06:39:47;;;;;;;3.50;2.75;;;14.60;99.90;;;;;;4855859;29;20046;-72
2023/07/05 06:42:13;;;;;;;4.40;2.95;;;14.60;99.90;;;;;;4841287;29;20050;-72
2023/07/05 06:44:39;;;;;;;3.90;2.58;;;14.50;99.90;;;;;;4839586;29;20145;-72
2023/07/05 06:47:05;;;;;;;3.55;2.72;;;14.50;99.90;;;;;;4843464;29;20053;-72
2023/07/05 06:49:31;;;;;;;4.13;2.60;;;14.70;99.90;;;;;;4856286;29;20045;-72
2023/07/05 06:51:57;;;;;;;3.50;2.58;;;14.80;99.90;;;;;;4839706;29;20049;-72
2023/07/05 06:54:23;;;;;;;4.15;2.70;;;14.90;99.90;;;;;;4840097;29;20388;-73
2023/07/05 06:56:48;;;;;;;3.00;2.50;;;14.80;99.90;;;;;;4847136;29;20056;-73
2023/07/05 06:59:14;;;;;;;3.33;2.63;;;14.80;99.90;;;;;;4846967;29;20415;-73
2023/07/05 07:01:40;;;;;;;3.42;2.47;;;14.70;99.90;;;;;;4865204;29;20397;-74
2023/07/05 07:04:06;;;;;;;5.38;2.80;;;14.60;99.90;;;;;;4841756;29;20045;-74
2023/07/05 07:06:33;;;;;;;5.05;2.85;;;14.60;99.90;;;;;;4855245;29;20056;-75
2023/07/05 07:09:01;;;;;;;5.00;3.03;;;14.80;99.90;;;;;;4874785;29;20422;-73
2023/07/05 07:11:27;;;;;;;4.70;2.83;;;14.80;99.90;;;;;;4844252;29;20084;-73
2023/07/05 07:13:52;;;;;;;3.92;2.35;;;14.90;99.90;;;;;;4837183;29;20077;-73
2023/07/05 07:16:18;;;;;;;4.05;2.80;;;15.20;99.90;;;;;;4855806;29;20038;-73
2023/07/05 07:18:45;;;;;;;3.13;2.65;;;15.40;99.90;;;;;;4861873;29;20078;-73
2023/07/05 07:21:12;;;;;;;7.32;3.10;;;15.60;99.90;;;;;;4850580;29;20069;-73
2023/07/05 07:23:37;;;;;;;;;;;15.90;99.90;;;;;;4853071;29;20041;-75
2023/07/05 07:26:18;;;;;;;5.45;3.33;;;16.00;99.90;;;;;;4862078;29;20266;-73
2023/07/05 07:28:48;;;;;;;6.13;2.80;;;16.00;99.90;;;;;;4869578;29;20049;-73
2023/07/05 07:31:20;;;;;;;3.67;2.70;;;15.90;99.90;;;;;;4848800;29;20112;-73
2023/07/05 07:33:47;;;;;;;4.70;2.30;;;15.60;1.00;;;;;;4852521;29;20099;-73
2023/07/05 07:36:16;;;;;;;2.90;2.30;;;15.50;99.90;;;;;;4841375;29;20411;-73
2023/07/05 07:38:43;;;;;;;4.65;2.50;;;15.30;99.90;;;;;;4862111;29;20079;-73
2023/07/05 07:41:13;;;;;;;3.67;2.40;;;15.10;99.90;;;;;;4841936;29;20045;-74
2023/07/05 07:43:39;;;;;;;3.05;2.20;;;15.10;99.90;;;;;;4848050;29;20054;-74
2023/07/05 07:46:16;;;;;;;3.42;2.50;;;15.20;99.90;;;;;;4851352;29;20056;-73
2023/07/05 07:48:45;;;;;;;4.00;2.20;;;14.90;99.90;;;;;;4858254;29;20475;-74
2023/07/05 07:51:11;;;;;;;3.38;2.28;;;14.80;99.90;;;;;;4855951;29;20486;-74
2023/07/05 07:53:36;;;;;;;3.08;2.00;;;14.60;99.90;;;;;;4850562;29;20046;-73
2023/07/05 07:56:17;;;;;;;3.60;2.13;;;14.50;99.90;;;;;;4849777;29;20521;-73
2023/07/05 07:58:46;;;;;;;2.42;1.90;;;14.30;99.90;;;;;;4843932;29;20081;-75
2023/07/05 08:01:17;;;;;;;2.80;2.28;;;14.30;99.90;;;;;;4845758;29;20395;-74
2023/07/05 08:03:44;;;;;;;3.10;2.00;;;13.90;99.90;;;;;;4857226;29;20101;-73
2023/07/05 08:06:10;;;;;;;2.60;2.00;;;13.70;99.90;;;;;;4851373;29;20523;-75
2023/07/05 08:08:39;;;;;;;3.00;1.60;;;13.80;99.90;;;;;;4861045;29;20056;-75
2023/07/05 08:11:07;;;;;;;2.63;1.55;;;13.50;99.90;;;;;;4843975;29;20045;-75
2023/07/05 08:13:32;;;;;;;1.90;1.30;;;13.50;99.90;;;;;;4844468;29;20080;-77
2023/07/05 08:15:59;;;;;;;1.30;1.02;;;13.20;99.90;;;;;;4844659;29;20409;-76
2023/07/05 08:18:25;;;;;;;;;;;13.10;99.90;;;;;;4855597;29;20491;-75
2023/07/05 08:20:51;;;;;;;2.72;1.15;;;12.90;99.90;;;;;;4852415;29;19931;-74
2023/07/05 08:23:17;;;;;;;1.40;0.82;;;12.70;99.90;;;;;;4837756;29;20880;-74
2023/07/05 08:25:43;;;;;;;1.55;1.00;;;12.40;99.90;;;;;;4859611;29;20076;-74
2023/07/05 08:28:13;;;;;;;3.25;0.90;;;12.30;99.90;;;;;;4850559;29;20518;-75
2023/07/05 08:30:42;;;;;;;2.75;0.90;;;12.50;99.90;;;;;;4836915;29;20057;-75
2023/07/05 08:33:08;;;;;;;1.75;0.80;;;12.40;99.90;;;;;;4844919;29;20046;-78
2023/07/05 08:35:37;;;;;;;1.52;0.65;;;12.00;99.90;;;;;;4843964;29;20077;-76
2023/07/05 08:38:02;;;;;;;0.88;0.63;;;12.30;99.90;;;;;;4854029;29;20398;-76
2023/07/05 08:40:35;;;;;;;2.85;0.70;;;11.80;99.90;;;;;;4836136;29;20058;-76
2023/07/05 08:43:09;;;;;;;1.27;0.55;;;12.20;99.90;;;;;;4849272;29;20087;-76
2023/07/05 08:45:44;;;;;;;1.90;0.68;;;11.80;99.90;;;;;;4849840;29;20168;-76
2023/07/05 08:48:14;;;;;;;1.80;0.85;;;12.20;99.90;;;;;;4851876;29;20054;-76
2023/07/05 08:50:44;;;;;;;1.48;0.70;;;12.20;99.90;;;;;;4848193;29;20049;-76
2023/07/05 08:53:19;;;;;;;1.90;0.60;;;11.80;99.90;;;;;;4858477;29;20046;-78
2023/07/05 08:55:50;;;;;;;2.20;0.60;;;11.80;99.90;;;;;;4860996;29;20045;-76
2023/07/05 08:58:40;;;;;;;1.67;0.52;;;11.70;99.90;;;;;;4855929;29;20049;-77
2023/07/05 09:01:23;;;;;;;1.50;0.70;;;12.10;99.90;;;;;;4845074;29;20492;-77
2023/07/05 09:03:48;;;;;;;1.20;0.70;;;12.10;99.90;;;;;;4835609;29;20376;-78
2023/07/05 09:06:24;;;;;;;1.27;0.70;;;11.90;99.90;;;;;;4863154;29;20056;-77
2023/07/05 09:09:16;;;;;;;1.92;0.70;;;11.90;99.90;;;;;;4835295;29;20045;-76
2023/07/05 09:11:47;;;;;;;2.53;0.90;;;11.70;99.90;;;;;;4852604;29;20045;-77
2023/07/05 09:14:25;;;;;;;1.88;0.60;;;12.30;99.90;;;;;;4858567;29;20082;-77
2023/07/05 09:17:01;;;;;;;3.13;1.13;;;11.80;99.90;;;;;;4829457;29;20034;-79
2023/07/05 09:19:30;;;;;;;4.40;1.27;;;12.20;99.90;;;;;;4846368;29;20054;-78
2023/07/05 09:22:01;;;;;;;4.85;1.27;;;11.80;99.90;;;;;;4840937;29;20504;-77
2023/07/05 09:24:32;;;;;;;6.80;1.30;;;11.80;99.90;;;;;;4837522;29;20045;-77
2023/07/05 09:27:17;;;;;;;6.68;1.30;;;11.90;99.90;;;;;;4850345;29;20037;-76
2023/07/05 09:29:50;;;;;;;5.80;1.40;;;12.00;99.90;;;;;;4844419;29;20042;-77
2023/07/05 09:32:25;;;;;;;6.60;1.67;;;12.10;99.90;;;;;;4835899;29;20088;-78
2023/07/05 09:34:58;;;;;;;7.30;1.50;;;12.70;99.90;;;;;;4849313;29;20403;-76
2023/07/05 09:37:27;;;;;;;6.55;1.20;;;12.40;99.90;;;;;;4851539;29;20400;-78
2023/07/05 09:39:55;;;;;;;3.30;0.65;;;12.60;99.90;;;;;;4847565;29;20046;-80
2023/07/05 09:42:40;;;;;;;5.32;0.68;;;12.90;99.90;;;;;;4837642;29;20121;-86
2023/07/05 09:45:14;;;;;;;5.97;0.70;;;12.80;99.90;;;;;;4849109;29;20483;-78
2023/07/05 09:47:41;;;;;;;3.08;0.57;;;13.00;99.90;;;;;;4845575;29;20110;-78
2023/07/05 09:50:20;;;;;;;3.95;0.43;;;13.20;99.90;;;;;;4838235;29;20052;-80
2023/07/05 09:52:51;;;;;;;7.13;0.75;;;13.20;99.90;;;;;;4837980;29;20045;-79
2023/07/05 09:55:19;;;;;;;4.47;0.50;;;13.30;99.90;;;;;;4842685;29;20057;-81
2023/07/05 09:57:45;;;;;;;4.72;0.88;;;13.30;99.90;;;;;;4857695;29;20525;-81
2023/07/05 10:00:23;;;;;;;3.80;0.40;;;13.30;99.90;;;;;;4834439;29;20050;-84
2023/07/05 10:02:51;;;;;;;4.68;0.50;;;13.50;99.90;;;;;;4840846;29;20057;-85
2023/07/05 10:05:28;;;;;;;5.35;0.75;;;13.50;99.90;;;;;;4856756;29;20060;-83
2023/07/05 10:08:04;;;;;;;3.83;0.60;;;13.60;99.90;;;;;;4852219;29;20037;-83
2023/07/05 10:10:35;;;;;;;2.95;0.40;;;13.60;99.90;;;;;;4851418;29;20839;-78
2023/07/05 10:13:24;;;;;;;3.67;0.68;;;13.70;99.90;;;;;;4841515;29;20056;-77
2023/07/05 10:15:57;;;;;;;3.55;0.52;;;13.90;99.90;;;;;;4845664;29;20128;-78
2023/07/05 10:18:31;;;;;;;1.90;0.40;;;14.00;99.90;;;;;;4841653;29;20046;-79
2023/07/05 10:21:00;;;;;;;2.50;0.73;;;14.20;99.90;;;;;;4843615;29;20117;-79
2023/07/05 10:23:28;;;;;;;1.15;0.30;;;14.30;99.90;;;;;;4855634;29;20062;-77
2023/07/05 10:26:00;;;;;;;2.42;0.38;;;14.60;99.90;;;;;;4852239;29;20046;-80
2023/07/05 10:28:29;;;;;;;2.03;0.40;;;14.80;99.90;;;;;;4833146;29;20539;-82
2023/07/05 10:30:57;;;;;;;3.65;0.40;;;14.70;99.90;;;;;;4851110;29;20056;-80
2023/07/05 10:33:29;;;;;;;3.00;0.52;;;14.60;99.90;;;;;;4833808;29;20174;-83
2023/07/05 10:36:02;;;;;;;3.45;0.40;;;14.50;99.90;;;;;;4839655;29;20113;-81
2023/07/05 10:38:49;;;;;;;1.60;0.32;;;14.50;99.90;;;;;;4852949;29;20109;-79
2023/07/05 10:41:31;;;;;;;;;;;14.50;99.90;;;;;;4852980;29;20045;-78
2023/07/05 10:44:07;;;;;;;3.92;0.50;;;14.60;99.90;;;;;;4843230;29;19972;-74
2023/07/05 10:46:36;;;;;;;2.43;0.60;;;14.60;99.90;;;;;;4849895;29;20096;-81
2023/07/05 10:49:12;;;;;;;4.68;0.60;;;14.70;99.90;;;;;;4847844;29;20792;-75
2023/07/05 10:51:43;;;;;;;1.58;0.50;;;14.80;1.00;;;;;;4831278;29;20073;-72
2023/07/05 10:54:59;;;;;;;1.17;0.40;;;15.00;5.50;;;;;;4851623;29;20053;-85
2023/07/05 10:57:30;;;;;;;3.83;0.55;;;15.30;99.90;;;;;;4866701;29;20124;-80
2023/07/05 11:00:11;;;;;;;2.25;0.77;;;15.50;99.90;;;;;;4876470;29;20052;-80
2023/07/05 11:02:40;;;;;;;3.55;0.50;;;15.60;1.00;;;;;;4872890;29;20057;-75
2023/07/05 11:05:32;;;;;;;3.00;0.70;;;15.70;43.50;;;;;;4879014;29;20416;-75
2023/07/05 11:08:01;;;;;;;2.83;0.57;;;15.70;1.00;;;;;;4851112;29;20050;-77
2023/07/05 11:10:29;;;;;;;1.10;0.50;;;15.70;1.00;;;;;;4852574;29;20481;-79
2023/07/05 11:12:55;;;;;;;1.45;0.50;;;15.70;1.00;;;;;;4841794;29;20046;-78
2023/07/05 11:15:22;;;;;;;4.40;0.73;;;16.10;1.00;;;;;;4841498;29;20049;-82
2023/07/05 11:17:48;;;;;;;;;;;16.40;1.10;;;;;;4826742;29;20034;-80
2023/07/05 11:20:54;;;;;;;2.15;0.90;;;16.70;1.00;;;;;;4855028;29;19971;-79
2023/07/05 11:23:44;;;;;;;3.03;1.00;;;17.00;99.90;;;;;;4857008;29;20065;-78
2023/07/05 11:26:31;;;;;;;1.40;0.70;;;17.00;99.90;;;;;;4845668;29;20361;-78
2023/07/05 11:28:57;;;;;;;1.92;0.77;;;16.90;99.90;;;;;;4846369;29;20068;-79
2023/07/05 11:31:29;;;;;;;3.88;1.02;;;16.90;1.00;;;;;;4870199;29;20452;-79
2023/07/05 11:34:20;;;;;;;2.65;0.80;;;16.90;1.00;;;;;;4859564;29;20081;-81
2023/07/05 11:36:53;;;;;;;1.38;0.70;;;17.30;99.90;;;;;;4859645;29;20038;-79
2023/07/05 11:39:48;;;;;;;6.07;1.05;;;17.60;99.90;;;;;;4859370;29;20045;-76
2023/07/05 11:42:16;;;;;;;3.53;1.02;;;17.70;99.70;;;;;;4844140;29;20041;-80
2023/07/05 11:44:44;;;;;;;3.55;0.93;;;17.50;99.90;;;;;;4859473;29;20038;-81
2023/07/05 11:47:30;;;;;;;3.50;0.80;;;17.30;99.90;;;;;;4859967;29;20067;-82
2023/07/05 11:50:06;;;;;;;3.60;1.05;;;17.20;99.90;;;;;;4859160;29;20045;-81
2023/07/05 11:52:38;;;;;;;5.47;1.00;;;17.10;99.90;;;;;;4844403;29;20053;-82
2023/07/05 11:55:03;;;;;;;2.25;0.80;;;17.10;99.90;;;;;;4841111;29;20074;-81
2023/07/05 11:57:39;;;;;;;2.50;0.82;;;17.20;99.90;;;;;;4838038;29;20077;-81
2023/07/05 12:00:10;;;;;;;3.35;1.00;;;17.30;99.90;;;;;;4847666;29;20046;-79
2023/07/05 12:03:13;;;;;;;4.70;1.10;;;17.30;99.90;;;;;;4859544;29;20060;-80
2023/07/05 12:05:39;;;;;;;3.35;0.70;;;17.30;99.90;;;;;;4847962;29;20137;-79
2023/07/05 12:08:26;;;;;;;3.72;0.95;;;17.30;99.90;;;;;;4857649;29;20064;-81
2023/07/05 12:10:54;;;;;;;4.57;1.05;;;17.10;99.90;;;;;;4851841;29;20198;-81
2023/07/05 12:13:23;;;;;;;7.03;1.63;;;17.00;99.90;;;;;;4867798;29;20152;-80
2023/07/05 12:15:49;;;;;;;6.30;1.73;;;16.20;1.00;;;;;;4878918;29;20352;-80
2023/07/05 12:18:16;;;;;;;5.65;1.42;;;15.40;91.20;;;;;;4855155;29;20068;-81
2023/07/05 12:20:47;;;;;;;7.00;1.55;;;15.00;99.90;;;;;;4861587;29;20049;-83
2023/07/05 12:23:14;;;;;;;5.85;1.50;;;14.80;99.90;;;;;;4877648;29;20056;-82
2023/07/05 12:25:45;;;;;;;7.97;1.70;;;14.50;99.90;;;;;;4849298;29;20088;-78
2023/07/05 12:28:17;;;;;;;5.38;1.50;;;14.40;99.90;;;;;;4868179;29;20092;-79
2023/07/05 12:30:44;;;;;;;5.18;1.30;;;14.20;99.90;;;;;;4843084;29;20109;-82
2023/07/05 12:33:26;;;;;;;5.13;1.25;;;13.90;99.90;;;;;;4818964;29;20049;-83
2023/07/05 12:36:12;;;;;;;6.28;1.77;;;13.90;99.90;;;;;;4845823;29;20060;-80
2023/07/05 12:38:40;;;;;;;6.55;1.50;;;13.70;99.90;;;;;;4844348;29;20068;-79
2023/07/05 12:41:15;;;;;;;5.15;1.83;;;13.60;99.90;;;;;;4858190;29;20046;-82
2023/07/05 12:43:41;;;;;;;8.80;2.08;;;13.70;99.90;;;;;;4844271;29;20500;-76
2023/07/05 12:46:20;;;;;;;6.47;1.70;;;13.60;99.90;;;;;;4843604;29;20057;-76
2023/07/05 12:48:47;;;;;;;4.90;1.30;;;13.60;99.90;;;;;;4828298;29;20159;-77
2023/07/05 12:51:21;;;;;;;5.70;1.60;;;13.70;99.90;;;;;;4846570;29;20041;-76
2023/07/05 12:53:58;;;;;;;10.32;2.28;;;13.50;99.90;;;;;;4851210;29;20396;-76
2023/07/05 12:56:31;;;;;;;6.47;1.90;;;13.50;99.90;;;;;;4841294;29;20053;-74
2023/07/05 12:59:06;;;;;;;9.60;1.98;;;13.60;99.90;;;;;;4828737;29;20437;-74
2023/07/05 13:01:41;;;;;;;5.60;1.65;;;13.60;99.90;;;;;;4845413;29;20033;-76
2023/07/05 13:04:10;;;;;;;8.70;2.05;;;13.40;99.90;;;;;;4842507;29;20120;-77
2023/07/05 13:06:36;;;;;;;10.25;2.50;;;13.50;99.90;;;;;;4848368;29;20048;-77
2023/07/05 13:09:02;;;;;;;9.77;2.35;;;13.40;99.90;;;;;;4842709;29;20487;-77
2023/07/05 13:11:28;;;;;;;10.93;3.28;;;13.50;99.90;;;;;;4842768;29;20428;-76
2023/07/05 13:14:07;;;;;;;8.98;2.67;;;13.50;99.90;;;;;;4831751;29;20053;-77
2023/07/05 13:16:56;;;;;;;11.63;2.45;;;13.20;99.90;;;;;;4833770;29;20121;-76
2023/07/05 13:19:41;;;;;;;7.97;2.25;;;13.10;99.90;;;;;;4829070;29;20136;-76
2023/07/05 13:22:21;;;;;;;9.35;2.75;;;13.30;99.90;;;;;;4840708;29;20058;-75
2023/07/05 13:24:49;;;;;;;11.25;2.72;;;13.00;99.90;;;;;;4853612;29;20062;-78
2023/07/05 13:27:25;;;;;;;10.15;2.20;;;12.70;99.90;;;;;;4844769;29;20502;-80